createdAt,value
2017-08-15T00:00:57.113Z,67.77
2017-08-15T00:02:07.739Z,67.96
2017-08-15T00:03:18.188Z,67.71
2017-08-15T00:04:28.368Z,67.99
2017-08-15T00:05:38.819Z,68.19
2017-08-15T00:06:49.507Z,68.25
2017-08-15T00:08:00.130Z,68.96
2017-08-15T00:09:10.601Z,68.29
2017-08-15T00:10:21.163Z,68.54
2017-08-15T00:11:31.710Z,68.15
2017-08-15T00:12:42.716Z,68.35
2017-08-15T00:13:53.220Z,68.35
2017-08-15T00:15:03.710Z,68.54
2017-08-15T00:16:14.213Z,68.54
2017-08-15T00:17:24.670Z,68.44
2017-08-15T00:18:35.405Z,68.25
2017-08-15T00:19:45.880Z,68.57
2017-08-15T00:20:56.341Z,68.48
2017-08-15T00:22:06.791Z,68.44
2017-08-15T00:23:17.290Z,68.76
2017-08-15T00:24:28.023Z,68.48
2017-08-15T00:25:38.474Z,68.48
2017-08-15T00:26:49.433Z,68.57
2017-08-15T00:27:59.896Z,68.25
2017-08-15T00:29:10.046Z,68.73
2017-08-15T00:30:20.764Z,68.35
2017-08-15T00:31:31.448Z,68.73
2017-08-15T00:32:41.960Z,68.67
2017-08-15T00:33:52.459Z,68.63
2017-08-15T00:35:02.842Z,68.73
2017-08-15T00:36:13.630Z,68.35
2017-08-15T00:37:24.090Z,68.44
2017-08-15T00:38:34.332Z,68.73
2017-08-15T00:39:44.770Z,68.83
2017-08-15T00:40:56.209Z,69.02
2017-08-15T00:42:06.934Z,69.02
2017-08-15T00:43:17.102Z,68.92
2017-08-15T00:44:28.569Z,69.06
2017-08-15T00:45:39.424Z,68.96
2017-08-15T00:46:49.883Z,68.83
2017-08-15T00:48:00.614Z,69.34
2017-08-15T00:49:11.092Z,68.83
2017-08-15T00:50:21.542Z,69.02
2017-08-15T00:51:31.977Z,68.83
2017-08-15T00:52:42.474Z,69.53
2017-08-15T00:53:52.897Z,69.5
2017-08-15T00:55:03.357Z,69.34
2017-08-15T00:56:13.824Z,69.44
2017-08-15T00:57:24.273Z,69.53
2017-08-15T00:58:34.963Z,69.31
2017-08-15T00:59:45.432Z,69.79
2017-08-15T01:00:55.906Z,70.07
2017-08-15T01:02:06.084Z,69.69
2017-08-15T01:03:16.552Z,70.07
2017-08-15T01:04:27.055Z,69.69
2017-08-15T01:05:37.318Z,70.17
2017-08-15T01:06:47.815Z,70.27
2017-08-15T01:07:57.981Z,70.46
2017-08-15T01:09:08.430Z,70.65
2017-08-15T01:10:18.937Z,70.84
2017-08-15T01:11:29.629Z,70.75
2017-08-15T01:12:39.661Z,70.84
2017-08-15T01:13:50.372Z,70.94
2017-08-15T01:15:00.996Z,70.84
2017-08-15T01:16:11.443Z,70.94
2017-08-15T01:17:22.175Z,71.71
2017-08-15T01:18:32.639Z,71.61
2017-08-15T01:19:43.097Z,71.71
2017-08-15T01:20:53.571Z,71.42
2017-08-15T01:22:03.719Z,71.52
2017-08-15T01:23:14.479Z,71.71
2017-08-15T01:24:24.957Z,71.81
2017-08-15T01:25:35.732Z,71.33
2017-08-15T01:26:46.407Z,71.52
2017-08-15T01:27:56.884Z,71.61
2017-08-15T01:29:07.578Z,71.52
2017-08-15T01:30:18.035Z,71.52
2017-08-15T01:31:28.515Z,71.42
2017-08-15T01:32:38.865Z,71.52
2017-08-15T01:33:49.334Z,71.42
2017-08-15T01:35:00.080Z,71.23
2017-08-15T01:36:11.200Z,71.42
2017-08-15T01:37:21.659Z,71.52
2017-08-15T01:38:31.863Z,71.61
2017-08-15T01:39:42.448Z,71.61
2017-08-15T01:40:53.193Z,72.19
2017-08-15T01:42:03.678Z,72.19
2017-08-15T01:43:14.167Z,71.91
2017-08-15T01:44:24.632Z,72.29
2017-08-15T01:45:35.081Z,71.91
2017-08-15T01:46:45.855Z,72
2017-08-15T01:47:56.033Z,71.77
2017-08-15T01:49:06.561Z,72.34
2017-08-15T01:50:16.411Z,72.16
2017-08-15T01:51:26.404Z,72.92
2017-08-15T01:52:37.113Z,73.02
2017-08-15T01:53:47.613Z,72.73
2017-08-15T01:54:58.092Z,72.73
2017-08-15T01:56:08.582Z,72.64
2017-08-15T01:57:19.039Z,72.92
2017-08-15T01:58:29.831Z,72.92
2017-08-15T01:59:40.437Z,73.41
2017-08-15T02:00:50.912Z,72.83
2017-08-15T02:02:01.392Z,73.31
2017-08-15T02:03:11.859Z,73.31
2017-08-15T02:04:22.570Z,73.5
2017-08-15T02:05:33.152Z,73.31
2017-08-15T02:06:43.604Z,73.41
2017-08-15T02:07:54.077Z,73.6
2017-08-15T02:09:04.526Z,73.31
2017-08-15T02:10:15.300Z,73.6
2017-08-15T02:11:25.478Z,73.6
2017-08-15T02:12:36.031Z,73.6
2017-08-15T02:13:46.535Z,73.69
2017-08-15T02:14:57.111Z,73.69
2017-08-15T02:16:07.905Z,73.98
2017-08-15T02:17:18.435Z,73.98
2017-08-15T02:18:28.889Z,73.79
2017-08-15T02:19:39.381Z,73.98
2017-08-15T02:20:49.874Z,73.98
2017-08-15T02:22:00.588Z,74.17
2017-08-15T02:23:11.039Z,74.37
2017-08-15T02:24:21.543Z,74.55
2017-08-15T02:25:32.289Z,74.27
2017-08-15T02:26:42.767Z,74.17
2017-08-15T02:27:53.256Z,74.08
2017-08-15T02:29:03.753Z,74.37
2017-08-15T02:30:14.423Z,74.75
2017-08-15T02:31:24.485Z,74.37
2017-08-15T02:32:34.633Z,74.46
2017-08-15T02:33:45.373Z,74.43
2017-08-15T02:34:55.848Z,74.81
2017-08-15T02:36:05.876Z,74.65
2017-08-15T02:37:16.354Z,74.55
2017-08-15T02:38:26.860Z,74.75
2017-08-15T02:39:36.959Z,75
2017-08-15T02:40:46.950Z,74.81
2017-08-15T02:41:57.403Z,74.71
2017-08-15T02:43:07.878Z,74.75
2017-08-15T02:44:18.413Z,74.94
2017-08-15T02:45:29.147Z,74.94
2017-08-15T02:46:39.317Z,75.04
2017-08-15T02:47:49.798Z,74.62
2017-08-15T02:49:01.298Z,75.2
2017-08-15T02:50:11.879Z,74.71
2017-08-15T02:51:22.819Z,74.62
2017-08-15T02:52:33.267Z,75.1
2017-08-15T02:53:43.729Z,75.29
2017-08-15T02:54:53.888Z,75.32
2017-08-15T02:56:04.357Z,74.71
2017-08-15T02:57:15.067Z,75.1
2017-08-15T02:58:25.516Z,74.71
2017-08-15T02:59:36.020Z,74.71
2017-08-15T03:00:46.496Z,74.55
2017-08-15T03:01:56.959Z,74.62
2017-08-15T03:03:07.684Z,74.43
2017-08-15T03:04:17.866Z,74.43
2017-08-15T03:05:28.307Z,74.52
2017-08-15T03:06:38.799Z,74.9
2017-08-15T03:07:49.243Z,74.81
2017-08-15T03:09:00.170Z,75
2017-08-15T03:10:10.627Z,75
2017-08-15T03:11:21.199Z,74.62
2017-08-15T03:12:31.660Z,74.62
2017-08-15T03:13:42.211Z,75.1
2017-08-15T03:14:52.948Z,75.32
2017-08-15T03:16:03.412Z,74.52
2017-08-15T03:17:14.097Z,74.75
2017-08-15T03:18:25.596Z,75.32
2017-08-15T03:19:35.837Z,75.13
2017-08-15T03:20:46.541Z,74.55
2017-08-15T03:21:57.087Z,74.81
2017-08-15T03:23:07.288Z,74.52
2017-08-15T03:24:17.433Z,74.65
2017-08-15T03:25:27.981Z,75.38
2017-08-15T03:26:38.692Z,74.81
2017-08-15T03:27:49.216Z,75.13
2017-08-15T03:28:59.411Z,75.04
2017-08-15T03:30:09.920Z,75
2017-08-15T03:31:20.435Z,74.81
2017-08-15T03:32:30.813Z,74.62
2017-08-15T03:33:41.302Z,75.2
2017-08-15T03:34:51.757Z,74.81
2017-08-15T03:36:02.301Z,75.29
2017-08-15T03:37:12.879Z,74.9
2017-08-15T03:38:23.809Z,74.9
2017-08-15T03:39:34.291Z,75
2017-08-15T03:40:44.786Z,75
2017-08-15T03:41:55.217Z,74.9
2017-08-15T03:43:05.663Z,75.38
2017-08-15T03:44:16.470Z,75.2
2017-08-15T03:45:26.919Z,75.2
2017-08-15T03:46:37.374Z,75.2
2017-08-15T03:47:47.410Z,75.2
2017-08-15T03:48:57.835Z,75.2
2017-08-15T03:50:08.659Z,75.2
2017-08-15T03:51:19.104Z,75
2017-08-15T03:52:29.469Z,74.9
2017-08-15T03:53:39.645Z,75
2017-08-15T03:54:50.204Z,75
2017-08-15T03:56:00.609Z,75
2017-08-15T03:57:10.765Z,75
2017-08-15T03:58:21.257Z,74.9
2017-08-15T03:59:31.392Z,75.1
2017-08-15T04:00:41.855Z,75
2017-08-15T04:01:52.563Z,74.81
2017-08-15T04:03:03.025Z,75.57
2017-08-15T04:04:13.069Z,75.1
2017-08-15T04:05:23.552Z,75.67
2017-08-15T04:06:33.685Z,75.57
2017-08-15T04:07:44.330Z,75.57
2017-08-15T04:08:54.796Z,75.29
2017-08-15T04:10:05.230Z,75.67
2017-08-15T04:11:14.749Z,75.48
2017-08-15T04:12:25.203Z,75.67
2017-08-15T04:13:36.036Z,75.57
2017-08-15T04:14:46.509Z,75.67
2017-08-15T04:15:57.051Z,75.32
2017-08-15T04:17:07.535Z,75.32
2017-08-15T04:18:18.060Z,75.71
2017-08-15T04:19:28.772Z,75.13
2017-08-15T04:20:38.919Z,75.13
2017-08-15T04:21:49.382Z,75.42
2017-08-15T04:22:59.890Z,75.32
2017-08-15T04:24:10.380Z,75.32
2017-08-15T04:25:21.107Z,75.62
2017-08-15T04:26:31.547Z,75.62
2017-08-15T04:27:42.045Z,75.71
2017-08-15T04:28:52.179Z,75.71
2017-08-15T04:30:02.690Z,75.32
2017-08-15T04:31:13.405Z,75.52
2017-08-15T04:32:23.563Z,75.32
2017-08-15T04:33:34.084Z,75.52
2017-08-15T04:34:44.944Z,75.62
2017-08-15T04:35:55.432Z,75.13
2017-08-15T04:37:06.242Z,75.13
2017-08-15T04:38:16.680Z,75.32
2017-08-15T04:39:27.117Z,75.62
2017-08-15T04:40:37.589Z,75.23
2017-08-15T04:41:48.192Z,75.67
2017-08-15T04:42:59.886Z,75.62
2017-08-15T04:44:10.381Z,75.62
2017-08-15T04:45:20.853Z,75.62
2017-08-15T04:46:31.322Z,75.52
2017-08-15T04:47:41.900Z,75.62
2017-08-15T04:48:52.380Z,75.42
2017-08-15T04:50:02.586Z,75.81
2017-08-15T04:51:13.123Z,75.62
2017-08-15T04:52:23.675Z,75.32
2017-08-15T04:53:34.207Z,75.32
2017-08-15T04:54:44.937Z,75.32
2017-08-15T04:55:55.392Z,75.71
2017-08-15T04:57:05.838Z,75.81
2017-08-15T04:58:16.356Z,75.62
2017-08-15T04:59:26.981Z,75.62
2017-08-15T05:00:37.678Z,75.13
2017-08-15T05:01:48.148Z,75.13
2017-08-15T05:02:58.720Z,75.13
2017-08-15T05:04:08.868Z,75.04
2017-08-15T05:05:19.320Z,75.04
2017-08-15T05:06:30.096Z,75.04
2017-08-15T05:07:40.610Z,75.13
2017-08-15T05:08:51.136Z,75.04
2017-08-15T05:10:01.574Z,75.04
2017-08-15T05:11:12.169Z,75.04
2017-08-15T05:12:22.447Z,75.13
2017-08-15T05:13:33.890Z,75.23
2017-08-15T05:14:44.374Z,75.52
2017-08-15T05:15:54.858Z,75.32
2017-08-15T05:17:05.294Z,75.42
2017-08-15T05:18:16.256Z,75.23
2017-08-15T05:19:26.703Z,75.13
2017-08-15T05:20:37.158Z,75.32
2017-08-15T05:21:47.329Z,75.23
2017-08-15T05:22:57.493Z,75.23
2017-08-15T05:24:08.215Z,75.23
2017-08-15T05:25:18.755Z,75.23
2017-08-15T05:26:29.195Z,74.94
2017-08-15T05:27:39.645Z,75.04
2017-08-15T05:28:50.127Z,75.04
2017-08-15T05:30:00.900Z,75.04
2017-08-15T05:31:11.091Z,74.85
2017-08-15T05:32:21.567Z,75.32
2017-08-15T05:33:32.032Z,75.23
2017-08-15T05:34:42.175Z,74.65
2017-08-15T05:35:53.027Z,74.85
2017-08-15T05:37:03.583Z,75.13
2017-08-15T05:38:14.111Z,74.75
2017-08-15T05:39:24.598Z,74.85
2017-08-15T05:40:35.072Z,75.04
2017-08-15T05:41:45.782Z,74.98
2017-08-15T05:42:56.286Z,74.98
2017-08-15T05:44:06.462Z,74.75
2017-08-15T05:45:16.606Z,74.5
2017-08-15T05:46:27.275Z,74.79
2017-08-15T05:47:37.360Z,74.4
2017-08-15T05:48:47.813Z,74.5
2017-08-15T05:49:58.311Z,74.3
2017-08-15T05:51:08.792Z,74.5
2017-08-15T05:52:19.269Z,74.21
2017-08-15T05:53:30.034Z,73.92
2017-08-15T05:54:40.556Z,73.44
2017-08-15T05:55:51.030Z,73.44
2017-08-15T05:57:01.628Z,73.63
2017-08-15T05:58:12.125Z,72.9
2017-08-15T05:59:22.500Z,72.71
2017-08-15T06:00:32.970Z,72.42
2017-08-15T06:01:43.462Z,72.52
2017-08-15T06:02:53.945Z,72.52
2017-08-15T06:04:03.808Z,72.13
2017-08-15T06:05:14.562Z,71.84
2017-08-15T06:06:25.022Z,71.75
2017-08-15T06:07:35.610Z,71.61
2017-08-15T06:08:46.318Z,71.94
2017-08-15T06:09:56.856Z,72.32
2017-08-15T06:11:07.595Z,72.32
2017-08-15T06:12:18.054Z,71.65
2017-08-15T06:13:28.516Z,71.65
2017-08-15T06:14:38.670Z,71.17
2017-08-15T06:15:49.143Z,71.65
2017-08-15T06:17:00.105Z,71.36
2017-08-15T06:18:10.570Z,71.26
2017-08-15T06:19:20.741Z,71.55
2017-08-15T06:20:30.593Z,71.65
2017-08-15T06:21:41.132Z,71.65
2017-08-15T06:22:51.842Z,71.55
2017-08-15T06:24:02.305Z,71.55
2017-08-15T06:25:12.330Z,71.55
2017-08-15T06:26:22.909Z,71.55
2017-08-15T06:27:33.359Z,71.75
2017-08-15T06:28:44.089Z,71.75
2017-08-15T06:29:54.582Z,71.69
2017-08-15T06:31:05.112Z,70.88
2017-08-15T06:32:15.580Z,70.88
2017-08-15T06:33:26.059Z,71.11
2017-08-15T06:34:36.008Z,71.08
2017-08-15T06:35:46.463Z,71.11
2017-08-15T06:36:56.909Z,70.88
2017-08-15T06:38:07.141Z,70.92
2017-08-15T06:39:17.628Z,70.72
2017-08-15T06:40:28.367Z,70.34
2017-08-15T06:41:38.875Z,70.43
2017-08-15T06:42:49.367Z,70.43
2017-08-15T06:43:59.845Z,70.43
2017-08-15T06:45:10.307Z,70.34
2017-08-15T06:46:21.005Z,70.43
2017-08-15T06:47:31.491Z,70.15
2017-08-15T06:48:41.972Z,69.76
2017-08-15T06:49:52.424Z,70.15
2017-08-15T06:51:34.682Z,69.51
2017-08-15T06:52:44.854Z,69.22
2017-08-15T06:53:55.314Z,69.22
2017-08-15T06:55:05.497Z,69.02
2017-08-15T06:56:15.520Z,69.22
2017-08-15T06:57:26.243Z,68.93
2017-08-15T06:58:36.712Z,68.93
2017-08-15T06:59:47.246Z,68.64
2017-08-15T07:00:57.732Z,68.54
2017-08-15T07:02:08.178Z,68.06
2017-08-15T07:03:18.881Z,68.87
2017-08-15T07:04:29.343Z,68.38
2017-08-15T07:05:40.028Z,68.29
2017-08-15T07:06:50.523Z,68
2017-08-15T07:08:01.083Z,68.1
2017-08-15T07:09:12.833Z,67.81
2017-08-15T07:10:23.083Z,67.9
2017-08-15T07:11:33.561Z,67.9
2017-08-15T07:12:43.721Z,67.13
2017-08-15T07:13:54.198Z,67.42
2017-08-15T07:15:04.966Z,67.42
2017-08-15T07:16:15.412Z,67.42
2017-08-15T07:17:25.577Z,67.33
2017-08-15T07:18:36.096Z,66.88
2017-08-15T07:19:46.269Z,66.49
2017-08-15T07:20:56.697Z,66.59
2017-08-15T07:22:06.845Z,66.49
2017-08-15T07:23:17.304Z,66.59
2017-08-15T07:24:27.750Z,66.49
2017-08-15T07:25:38.206Z,66.3
2017-08-15T07:26:49.225Z,66.88
2017-08-15T07:27:59.703Z,66.49
2017-08-15T07:29:10.206Z,66.11
2017-08-15T07:30:20.415Z,65.95
2017-08-15T07:31:30.658Z,66.01
2017-08-15T07:32:40.950Z,65.95
2017-08-15T07:33:51.429Z,66.04
2017-08-15T07:35:01.906Z,65.85
2017-08-15T07:36:11.677Z,65.66
2017-08-15T07:37:22.192Z,65.56
2017-08-15T07:38:33.880Z,65.85
2017-08-15T07:39:43.627Z,65.17
2017-08-15T07:40:54.082Z,66.04
2017-08-15T07:42:04.243Z,65.17
2017-08-15T07:43:14.569Z,65.08
2017-08-15T07:44:24.657Z,65.3
2017-08-15T07:45:35.107Z,65.59
2017-08-15T07:46:45.591Z,65.2
2017-08-15T07:47:55.463Z,65.2
2017-08-15T07:49:06.146Z,64.53
2017-08-15T07:50:16.893Z,65.2
2017-08-15T07:51:27.344Z,64.53
2017-08-15T07:52:37.921Z,64.72
2017-08-15T07:53:48.400Z,64.53
2017-08-15T07:54:58.860Z,64.05
2017-08-15T07:56:09.009Z,64.37
2017-08-15T07:57:19.513Z,64.37
2017-08-15T07:58:30.053Z,64.28
2017-08-15T07:59:40.525Z,64.18
2017-08-15T08:00:50.552Z,63.73
2017-08-15T08:02:00.966Z,63.92
2017-08-15T08:03:11.438Z,63.53
2017-08-15T08:04:21.917Z,63.43
2017-08-15T08:05:32.388Z,62.95
2017-08-15T08:06:42.888Z,62.7
2017-08-15T08:07:53.306Z,62.31
2017-08-15T08:09:03.439Z,62.02
2017-08-15T08:10:13.901Z,62.31
2017-08-15T08:11:24.416Z,61.27
2017-08-15T08:12:35.052Z,60.79
2017-08-15T08:13:45.807Z,60.69
2017-08-15T08:14:56.356Z,59.76
2017-08-15T08:16:06.773Z,59.66
2017-08-15T08:17:17.250Z,59.56
2017-08-15T08:18:27.742Z,59.86
2017-08-15T08:19:38.435Z,59.66
2017-08-15T08:20:48.896Z,58.82
2017-08-15T08:21:59.436Z,59.11
2017-08-15T08:23:09.896Z,58.34
2017-08-15T08:24:20.031Z,57.88
2017-08-15T08:25:30.834Z,57.3
2017-08-15T08:26:41.323Z,56.75
2017-08-15T08:27:51.803Z,55.81
2017-08-15T08:29:02.254Z,54.96
2017-08-15T08:30:12.951Z,53.85
2017-08-15T08:31:23.659Z,51.99
2017-08-15T08:32:33.838Z,50.75
2017-08-15T08:33:44.300Z,49.73
2017-08-15T08:34:54.752Z,48.39
2017-08-15T08:36:05.281Z,46.88
2017-08-15T08:37:16.030Z,45.73
2017-08-15T08:38:26.222Z,44.97
2017-08-15T08:39:36.275Z,44.12
2017-08-15T08:40:46.866Z,42.69
2017-08-15T08:41:57.338Z,43.1
2017-08-15T08:43:08.109Z,41.76
2017-08-15T08:44:18.585Z,40.7
2017-08-15T08:45:29.340Z,40.23
2017-08-15T08:46:39.853Z,38.96
2017-08-15T08:47:50.341Z,38
2017-08-15T08:49:00.773Z,37.31
2017-08-15T08:50:10.807Z,36.84
2017-08-15T08:51:21.298Z,36.57
2017-08-15T08:52:31.761Z,36.18
2017-08-15T08:53:42.219Z,35.49
2017-08-15T08:54:52.991Z,35.39
2017-08-15T08:56:03.552Z,35.31
2017-08-15T08:57:13.741Z,33.94
2017-08-15T08:58:23.934Z,33.56
2017-08-15T08:59:34.512Z,33.85
2017-08-15T09:00:45.315Z,33.64
2017-08-15T09:01:56.776Z,33.56
2017-08-15T09:03:07.242Z,33.36
2017-08-15T09:04:17.736Z,32.87
2017-08-15T09:05:27.987Z,32.69
2017-08-15T09:06:38.820Z,32.98
2017-08-15T09:07:49.299Z,32.89
2017-08-15T09:08:59.805Z,32.89
2017-08-15T09:10:09.981Z,31.51
2017-08-15T09:11:20.468Z,32.1
2017-08-15T09:12:30.920Z,32.48
2017-08-15T09:13:41.424Z,32.18
2017-08-15T09:14:52.022Z,31.99
2017-08-15T09:16:02.505Z,32.09
2017-08-15T09:17:12.836Z,32.78
2017-08-15T09:18:23.256Z,32.1
2017-08-15T09:19:33.996Z,31.71
2017-08-15T09:20:44.612Z,31.61
2017-08-15T09:21:55.107Z,30.74
2017-08-15T09:23:05.616Z,31.33
2017-08-15T09:24:16.365Z,31.23
2017-08-15T09:25:26.853Z,30.65
2017-08-15T09:26:37.351Z,31.13
2017-08-15T09:27:47.515Z,31.04
2017-08-15T09:28:59.184Z,30.94
2017-08-15T09:30:09.638Z,30.55
2017-08-15T09:31:20.135Z,30.63
2017-08-15T09:32:30.637Z,31.02
2017-08-15T09:33:41.347Z,31.04
2017-08-15T09:34:51.614Z,31.04
2017-08-15T09:36:02.332Z,30.95
2017-08-15T09:37:12.800Z,30.28
2017-08-15T09:38:23.018Z,30.18
2017-08-15T09:39:33.540Z,29.99
2017-08-15T09:40:44.018Z,29.79
2017-08-15T09:41:54.489Z,29.79
2017-08-15T09:43:04.738Z,29.69
2017-08-15T09:44:14.942Z,29.21
2017-08-15T09:45:25.425Z,29.21
2017-08-15T09:46:35.947Z,29.13
2017-08-15T09:47:46.817Z,28.93
2017-08-15T09:48:57.335Z,28.93
2017-08-15T09:50:07.808Z,28.34
2017-08-15T09:51:18.323Z,28.05
2017-08-15T09:52:28.912Z,28.72
2017-08-15T09:53:39.638Z,29.27
2017-08-15T09:54:50.129Z,30.02
2017-08-15T09:56:00.710Z,30.3
2017-08-15T09:57:11.193Z,30.6
2017-08-15T09:58:21.914Z,30.3
2017-08-15T09:59:32.847Z,30.5
2017-08-15T10:00:43.608Z,30.21
2017-08-15T10:01:54.129Z,30.32
2017-08-15T10:03:04.164Z,30.52
2017-08-15T10:04:14.964Z,30.4
2017-08-15T10:05:25.686Z,30.3
2017-08-15T10:06:35.721Z,30.4
2017-08-15T10:07:46.218Z,30.8
2017-08-15T10:08:57.368Z,30.6
2017-08-15T10:10:07.871Z,30.91
2017-08-15T10:11:18.683Z,30.43
2017-08-15T10:12:30.168Z,30.42
2017-08-15T10:13:40.256Z,30.53
2017-08-15T10:14:54.799Z,30.33
2017-08-15T10:16:06.388Z,30.52
2017-08-15T10:17:17.142Z,30.62
2017-08-15T10:18:27.326Z,30.42
2017-08-15T10:19:37.196Z,30.32
2017-08-15T10:20:47.716Z,29.93
2017-08-15T10:21:58.093Z,29.73
2017-08-15T10:23:08.399Z,29.73
2017-08-15T10:24:19.078Z,29.63
2017-08-15T10:25:28.811Z,29.73
2017-08-15T10:26:40.296Z,29.83
2017-08-15T10:27:50.877Z,30.3
2017-08-15T10:29:01.755Z,30.3
2017-08-15T10:30:12.281Z,30.3
2017-08-15T10:31:22.891Z,30.3
2017-08-15T10:32:33.084Z,30.3
2017-08-15T10:33:43.567Z,30.4
2017-08-15T10:34:53.989Z,30.11
2017-08-15T10:36:04.470Z,30.22
2017-08-15T10:37:15.010Z,29.93
2017-08-15T10:38:25.532Z,29.63
2017-08-15T10:39:35.998Z,29.83
2017-08-15T10:40:46.967Z,29.73
2017-08-15T10:41:57.497Z,30.32
2017-08-15T10:43:08.159Z,30.21
2017-08-15T10:44:18.724Z,30.5
2017-08-15T10:45:29.216Z,30.62
2017-08-15T10:46:40.112Z,30.62
2017-08-15T10:47:50.597Z,30.52
2017-08-15T10:49:01.225Z,30.33
2017-08-15T10:50:11.710Z,30.33
2017-08-15T10:51:22.183Z,30.24
2017-08-15T10:52:32.985Z,30.14
2017-08-15T10:53:43.203Z,30.43
2017-08-15T10:54:53.696Z,30.14
2017-08-15T10:56:03.912Z,29.96
2017-08-15T10:57:14.534Z,29.86
2017-08-15T10:58:25.261Z,30.07
2017-08-15T10:59:35.438Z,29.68
2017-08-15T11:00:45.924Z,29.19
2017-08-15T11:01:56.410Z,28.97
2017-08-15T11:03:06.888Z,29.64
2017-08-15T11:04:17.685Z,29.85
2017-08-15T11:05:28.172Z,29.94
2017-08-15T11:06:38.391Z,29.85
2017-08-15T11:07:48.942Z,29.93
2017-08-15T11:08:59.428Z,30.02
2017-08-15T11:10:10.223Z,30.42
2017-08-15T11:11:20.934Z,30.52
2017-08-15T11:12:31.088Z,30.71
2017-08-15T11:13:41.272Z,30.5
2017-08-15T11:14:51.811Z,30.9
2017-08-15T11:16:02.542Z,30.8
2017-08-15T11:17:13.080Z,30.9
2017-08-15T11:18:23.894Z,30.99
2017-08-15T11:19:34.395Z,31.01
2017-08-15T11:20:44.904Z,30.62
2017-08-15T11:21:55.676Z,30.62
2017-08-15T11:23:06.201Z,30.52
2017-08-15T11:24:16.721Z,30.52
2017-08-15T11:25:27.202Z,30.52
2017-08-15T11:26:37.807Z,30.52
2017-08-15T11:27:48.627Z,30.71
2017-08-15T11:28:59.119Z,30.53
2017-08-15T11:30:09.699Z,30.81
2017-08-15T11:31:19.863Z,31.1
2017-08-15T11:32:30.399Z,31.4
2017-08-15T11:33:41.126Z,31.1
2017-08-15T11:34:51.613Z,31.1
2017-08-15T11:36:01.833Z,31.04
2017-08-15T11:37:12.373Z,30.94
2017-08-15T11:38:22.874Z,30.45
2017-08-15T11:39:33.628Z,30.56
2017-08-15T11:40:44.110Z,29.87
2017-08-15T11:41:54.611Z,29.89
2017-08-15T11:43:05.156Z,29.69
2017-08-15T11:44:15.640Z,29.3
2017-08-15T11:45:26.422Z,29.39
2017-08-15T11:46:36.962Z,29.39
2017-08-15T11:47:47.453Z,29.87
2017-08-15T11:48:57.938Z,29.38
2017-08-15T11:50:08.440Z,29.87
2017-08-15T11:51:19.200Z,29.58
2017-08-15T11:52:29.636Z,29.66
2017-08-15T11:53:40.109Z,30.43
2017-08-15T11:54:51.568Z,30.99
2017-08-15T11:56:02.133Z,31.09
2017-08-15T11:57:12.839Z,31.29
2017-08-15T11:58:23.332Z,31.07
2017-08-15T11:59:33.832Z,31.27
2017-08-15T12:00:44.342Z,31.94
2017-08-15T12:01:54.840Z,32.51
2017-08-15T12:03:05.567Z,32.03
2017-08-15T12:04:16.027Z,32.43
2017-08-15T12:05:26.069Z,32.53
2017-08-15T12:06:36.671Z,32.74
2017-08-15T12:07:47.139Z,32.46
2017-08-15T12:08:57.595Z,32.37
2017-08-15T12:10:08.083Z,31.97
2017-08-15T12:11:18.611Z,32.07
2017-08-15T12:12:28.865Z,32.06
2017-08-15T12:13:39.083Z,32.84
2017-08-15T12:14:49.904Z,32.92
2017-08-15T12:16:00.059Z,33.29
2017-08-15T12:17:10.235Z,33
2017-08-15T12:18:19.965Z,33.59
2017-08-15T12:19:30.144Z,33.87
2017-08-15T12:20:40.568Z,33.97
2017-08-15T12:21:51.033Z,33.87
2017-08-15T12:23:01.507Z,33.87
2017-08-15T12:24:11.744Z,34.24
2017-08-15T12:25:22.272Z,34.74
2017-08-15T12:26:33.130Z,34.74
2017-08-15T12:27:43.642Z,34.65
2017-08-15T12:28:54.244Z,35.03
2017-08-15T12:30:04.550Z,35.13
2017-08-15T12:31:15.328Z,35.42
2017-08-15T12:32:26.124Z,35.3
2017-08-15T12:33:36.846Z,35.42
2017-08-15T12:34:47.341Z,35.13
2017-08-15T12:35:57.853Z,35.42
2017-08-15T12:37:08.350Z,35.4
2017-08-15T12:38:19.093Z,35.69
2017-08-15T12:39:29.669Z,35.99
2017-08-15T12:40:40.191Z,35.99
2017-08-15T12:41:50.690Z,36.08
2017-08-15T12:43:01.349Z,36.08
2017-08-15T12:44:12.326Z,36.18
2017-08-15T12:45:22.840Z,36.47
2017-08-15T12:46:33.324Z,36.28
2017-08-15T12:47:43.825Z,36.38
2017-08-15T12:48:54.311Z,36.77
2017-08-15T12:50:04.725Z,36.3
2017-08-15T12:51:16.323Z,36.2
2017-08-15T12:52:26.835Z,36.28
2017-08-15T12:53:37.319Z,36.67
2017-08-15T12:54:47.823Z,36.77
2017-08-15T12:55:58.558Z,36.87
2017-08-15T12:57:10.027Z,36.94
2017-08-15T12:58:20.596Z,36.94
2017-08-15T12:59:31.073Z,36.94
2017-08-15T13:00:41.548Z,37.34
2017-08-15T13:01:52.479Z,37.14
2017-08-15T13:03:02.978Z,37.14
2017-08-15T13:04:13.452Z,37.14
2017-08-15T13:05:23.953Z,37.24
2017-08-15T13:06:34.438Z,37.14
2017-08-15T13:07:45.181Z,37.14
2017-08-15T13:08:55.715Z,37.43
2017-08-15T13:10:06.197Z,38.01
2017-08-15T13:11:16.676Z,37.71
2017-08-15T13:12:26.846Z,37.81
2017-08-15T13:13:37.366Z,37.41
2017-08-15T13:14:47.531Z,38.01
2017-08-15T13:15:58.034Z,38.1
2017-08-15T13:17:08.726Z,37.81
2017-08-15T13:18:19.230Z,38.1
2017-08-15T13:19:29.961Z,38.1
2017-08-15T13:20:40.446Z,38.1
2017-08-15T13:21:50.615Z,38.2
2017-08-15T13:23:01.427Z,38.01
2017-08-15T13:24:12.124Z,38.01
2017-08-15T13:25:22.874Z,38.01
2017-08-15T13:26:33.380Z,37.81
2017-08-15T13:27:43.691Z,37.91
2017-08-15T13:28:53.849Z,38.01
2017-08-15T13:30:04.320Z,37.71
2017-08-15T13:31:15.270Z,38.01
2017-08-15T13:32:25.146Z,37.91
2017-08-15T13:33:35.621Z,38.49
2017-08-15T13:34:46.173Z,38.1
2017-08-15T13:35:57.638Z,38.01
2017-08-15T13:37:08.170Z,37.91
2017-08-15T13:38:18.656Z,37.52
2017-08-15T13:39:29.172Z,37.52
2017-08-15T13:40:39.670Z,37.73
2017-08-15T13:41:49.868Z,37.63
2017-08-15T13:43:00.613Z,37.83
2017-08-15T13:44:11.375Z,37.83
2017-08-15T13:45:21.505Z,37.41
2017-08-15T13:46:32.018Z,37.12
2017-08-15T13:47:42.541Z,37.22
2017-08-15T13:48:53.300Z,37.21
2017-08-15T13:50:04.006Z,37.89
2017-08-15T13:51:14.484Z,37.6
2017-08-15T13:52:24.685Z,37.79
2017-08-15T13:53:35.186Z,37.4
2017-08-15T13:54:45.934Z,36.91
2017-08-15T13:55:56.404Z,36.8
2017-08-15T13:57:06.898Z,36.9
2017-08-15T13:58:17.395Z,36.99
2017-08-15T13:59:27.428Z,37.09
2017-08-15T14:00:38.191Z,36.99
2017-08-15T14:01:48.706Z,36.99
2017-08-15T14:02:59.232Z,37.38
2017-08-15T14:04:09.420Z,37.09
2017-08-15T14:05:19.704Z,37.3
2017-08-15T14:06:30.135Z,37.11
2017-08-15T14:07:40.646Z,37.02
2017-08-15T14:08:51.176Z,37.12
2017-08-15T14:10:01.669Z,37.22
2017-08-15T14:11:12.194Z,36.63
2017-08-15T14:12:22.931Z,35.87
2017-08-15T14:13:33.484Z,35.38
2017-08-15T14:14:43.223Z,35.19
2017-08-15T14:15:53.718Z,34.99
2017-08-15T14:17:04.270Z,35.38
2017-08-15T14:18:15.002Z,35.68
2017-08-15T14:19:25.507Z,35.97
2017-08-15T14:20:36.011Z,35.38
2017-08-15T14:21:46.487Z,35.38
2017-08-15T14:22:56.792Z,34.8
2017-08-15T14:24:07.280Z,35.07
2017-08-15T14:25:17.812Z,35.27
2017-08-15T14:26:28.301Z,35.09
2017-08-15T14:27:38.797Z,34.97
2017-08-15T14:28:49.301Z,35.07
2017-08-15T14:30:00.027Z,34.97
2017-08-15T14:31:10.712Z,34.58
2017-08-15T14:32:21.208Z,35.07
2017-08-15T14:33:31.701Z,34.58
2017-08-15T14:34:42.206Z,34
2017-08-15T14:35:53.001Z,33.9
2017-08-15T14:37:03.187Z,34.09
2017-08-15T14:38:13.681Z,34.58
2017-08-15T14:39:24.272Z,34.58
2017-08-15T14:40:34.776Z,33.9
2017-08-15T14:41:45.519Z,33.98
2017-08-15T14:42:56.045Z,33.98
2017-08-15T14:44:06.230Z,33.98
2017-08-15T14:45:16.276Z,34.08
2017-08-15T14:46:26.843Z,34.38
2017-08-15T14:47:37.609Z,34.67
2017-08-15T14:48:47.801Z,34.47
2017-08-15T14:49:58.295Z,33.98
2017-08-15T14:51:08.357Z,34.67
2017-08-15T14:52:18.838Z,33.89
2017-08-15T14:53:29.569Z,34.57
2017-08-15T14:54:39.779Z,34.57
2017-08-15T14:55:50.271Z,34.57
2017-08-15T14:57:00.433Z,34.86
2017-08-15T14:58:10.995Z,34.77
2017-08-15T14:59:21.725Z,35.16
2017-08-15T15:00:32.275Z,35.24
2017-08-15T15:01:42.751Z,35.24
2017-08-15T15:02:53.322Z,35.43
2017-08-15T15:04:03.835Z,34.75
2017-08-15T15:05:14.598Z,34.65
2017-08-15T15:06:25.092Z,34.94
2017-08-15T15:07:35.605Z,34.53
2017-08-15T15:08:46.127Z,34.63
2017-08-15T15:09:56.653Z,34.63
2017-08-15T15:11:07.385Z,34.73
2017-08-15T15:12:17.120Z,34.05
2017-08-15T15:13:27.629Z,34.44
2017-08-15T15:14:37.685Z,34.63